Howardstown, Kentucky
Current Conditions -  °F | °C
As of 4:58 PM on Monday 20 Oct 2014 (Local Time) from KFTK Reporting Station
Scattered Clouds Scattered Clouds  
Wind Chill: 67°   Ceiling: Unl
Heat Index: 67°   Visibility: 10mi
Dew Point: 52°   Wind: 15mph
Humidity: 57%   Direction: 200°SSW
Pressure: 29.89"   Gusts: 20mph
Location:  37.6609°N, 85.573°W
Report Text: KFTK 202058Z 20013G17KT 10SM SCT040 SCT050 20/11 A2989 RMK AO2A SLP123 T01960109 57016
Loading
Personal Weather Stations






























Interactive Weather Map
Tropical Storm Tracking
New forecast layout! Learn more

10-Day Weather Forecast

Advertisements
Track Severe Weather on mobile